createdAt,value
2017-07-12T00:02:07.071Z,6.73
2017-07-12T00:04:35.429Z,6.90
2017-07-12T00:07:05.240Z,6.70
2017-07-12T00:09:33.962Z,7.03
2017-07-12T00:12:03.055Z,5.93
2017-07-12T00:14:31.343Z,7.13
2017-07-12T00:16:59.620Z,6.93
2017-07-12T00:19:29.467Z,6.33
2017-07-12T00:21:57.747Z,6.13
2017-07-12T00:24:26.026Z,6.10
2017-07-12T00:26:54.380Z,6.80
2017-07-12T00:29:24.016Z,6.10
2017-07-12T00:31:53.541Z,7.07
2017-07-12T00:34:21.752Z,6.60
2017-07-12T00:36:50.800Z,7.70
2017-07-12T00:39:20.592Z,7.67
2017-07-12T00:41:50.051Z,8.33
2017-07-12T00:44:18.332Z,8.63
2017-07-12T00:46:46.607Z,8.80
2017-07-12T00:49:14.947Z,7.00
2017-07-12T00:51:43.229Z,8.00
2017-07-12T00:54:13.018Z,9.03
2017-07-12T00:56:41.339Z,7.80
2017-07-12T00:59:09.644Z,8.20
2017-07-12T01:01:39.427Z,8.37
2017-07-12T01:04:07.835Z,8.07
2017-07-12T01:06:36.904Z,8.00
2017-07-12T01:09:05.192Z,7.30
2017-07-12T01:11:38.574Z,7.30
2017-07-12T01:14:07.136Z,8.40
2017-07-12T01:16:35.828Z,8.67
2017-07-12T01:19:04.471Z,7.87
2017-07-12T01:21:33.914Z,7.63
2017-07-12T01:24:02.196Z,8.80
2017-07-12T01:26:30.551Z,8.70
2017-07-12T01:28:58.825Z,7.60
2017-07-12T01:31:27.104Z,8.80
2017-07-12T01:33:56.603Z,6.93
2017-07-12T01:36:26.335Z,9.20
2017-07-12T01:38:54.887Z,8.80
2017-07-12T01:41:23.219Z,8.10
2017-07-12T01:43:52.867Z,9.73
2017-07-12T01:46:21.788Z,7.80
2017-07-12T01:48:51.023Z,11.00
2017-07-12T01:51:20.819Z,9.50
2017-07-12T01:53:49.113Z,10.10
2017-07-12T01:56:17.468Z,10.23
2017-07-12T01:58:45.755Z,10.50
2017-07-12T02:01:14.047Z,10.00
2017-07-12T02:03:43.803Z,9.90
2017-07-12T02:06:11.966Z,9.57
2017-07-12T02:08:41.615Z,9.87
2017-07-12T02:11:10.603Z,10.17
2017-07-12T02:13:38.911Z,10.35
2017-07-12T02:16:08.704Z,10.53
2017-07-12T02:18:38.406Z,9.90
2017-07-12T02:21:06.959Z,10.30
2017-07-12T02:23:35.255Z,10.87
2017-07-12T02:26:03.749Z,10.50
2017-07-12T02:28:33.400Z,10.37
2017-07-12T02:31:01.956Z,10.90
2017-07-12T02:33:31.056Z,10.50
2017-07-12T02:35:59.343Z,10.37
2017-07-12T02:38:29.137Z,9.30
2017-07-12T02:40:57.455Z,9.23
2017-07-12T02:43:25.743Z,11.60
2017-07-12T02:45:55.384Z,11.80
2017-07-12T02:48:23.866Z,13.80
2017-07-12T02:50:53.665Z,10.20
2017-07-12T02:53:22.721Z,10.63
2017-07-12T02:55:52.423Z,11.80
2017-07-12T02:58:20.584Z,11.97
2017-07-12T03:00:50.223Z,13.23
2017-07-12T03:03:18.850Z,13.50
2017-07-12T03:05:48.520Z,11.10
2017-07-12T03:08:17.476Z,14.10
2017-07-12T03:10:46.727Z,10.40
2017-07-12T03:13:15.039Z,11.67
2017-07-12T03:15:43.324Z,15.83
2017-07-12T03:18:12.824Z,12.53
2017-07-12T03:20:41.875Z,11.60
2017-07-12T03:23:11.294Z,12.80
2017-07-12T03:25:41.149Z,11.50
2017-07-12T03:28:09.432Z,11.20
2017-07-12T03:30:37.716Z,12.73
2017-07-12T03:33:07.562Z,11.70
2017-07-12T03:35:35.847Z,11.70
2017-07-12T03:38:04.164Z,10.70
2017-07-12T03:40:32.911Z,10.40
2017-07-12T03:43:02.712Z,10.07
2017-07-12T03:45:30.999Z,9.77
2017-07-12T03:48:00.108Z,11.23
2017-07-12T03:50:29.168Z,13.37
2017-07-12T03:52:57.451Z,15.10
2017-07-12T03:55:26.695Z,15.00
2017-07-12T03:57:54.985Z,16.00
2017-07-12T04:00:23.272Z,15.17
2017-07-12T04:02:53.115Z,15.10
2017-07-12T04:05:21.404Z,14.87
2017-07-12T04:07:49.707Z,16.23
2017-07-12T04:10:19.517Z,14.43
2017-07-12T04:12:48.593Z,15.10
2017-07-12T04:15:17.657Z,16.07
2017-07-12T04:17:46.023Z,15.77
2017-07-12T04:20:15.683Z,15.27
2017-07-12T04:22:44.263Z,12.40
2017-07-12T04:25:13.040Z,14.70
2017-07-12T04:27:42.091Z,14.07
2017-07-12T04:30:11.144Z,13.70
2017-07-12T04:32:39.471Z,14.70
2017-07-12T04:35:09.107Z,14.53
2017-07-12T04:37:38.406Z,14.33
2017-07-12T04:40:06.735Z,14.53
2017-07-12T04:42:36.532Z,15.70
2017-07-12T04:45:05.597Z,14.70
2017-07-12T04:47:35.100Z,14.30
2017-07-12T04:50:03.400Z,17.53
2017-07-12T04:52:31.688Z,15.00
2017-07-12T04:55:00.020Z,15.63
2017-07-12T04:57:28.307Z,15.57
2017-07-12T04:59:56.592Z,17.90
2017-07-12T05:02:26.096Z,17.47
2017-07-12T05:04:55.731Z,16.47
2017-07-12T05:07:24.660Z,17.87
2017-07-12T05:09:52.996Z,18.70
2017-07-12T05:12:21.283Z,17.97
2017-07-12T05:14:49.980Z,18.20
2017-07-12T05:17:18.648Z,18.60
2017-07-12T05:19:48.461Z,18.00
2017-07-12T05:22:16.763Z,17.40
2017-07-12T05:24:45.132Z,18.57
2017-07-12T05:27:13.424Z,17.87
2017-07-12T05:29:41.720Z,17.43
2017-07-12T05:32:10.851Z,18.07
2017-07-12T05:34:39.135Z,17.73
2017-07-12T05:37:07.422Z,20.40
2017-07-12T05:39:35.768Z,21.40
2017-07-12T05:42:04.069Z,19.67
2017-07-12T05:44:32.352Z,18.60
2017-07-12T05:47:00.686Z,18.10
2017-07-12T05:49:28.976Z,21.27
2017-07-12T05:51:58.031Z,20.77
2017-07-12T05:54:30.911Z,21.47
2017-07-12T05:56:59.202Z,20.07
2017-07-12T05:59:28.259Z,21.63
2017-07-12T06:01:56.589Z,17.50
2017-07-12T06:04:24.876Z,17.47
2017-07-12T06:06:53.163Z,16.20
2017-07-12T06:09:21.507Z,16.50
2017-07-12T06:11:50.571Z,15.73
2017-07-12T06:14:18.867Z,15.90
2017-07-12T06:16:48.594Z,16.90
2017-07-12T06:19:17.176Z,15.90
2017-07-12T06:21:46.246Z,16.57
2017-07-12T06:24:15.737Z,15.63
2017-07-12T06:26:44.040Z,15.80
2017-07-12T06:29:12.339Z,17.80
2017-07-12T06:31:42.031Z,17.73
2017-07-12T06:34:10.585Z,16.53
2017-07-12T06:36:40.006Z,16.27
2017-07-12T06:39:08.340Z,17.97
2017-07-12T06:41:37.388Z,18.70
2017-07-12T06:44:06.068Z,18.00
2017-07-12T06:46:34.418Z,19.90
2017-07-12T06:49:04.071Z,17.80
2017-07-12T06:51:32.630Z,18.30
2017-07-12T06:54:00.991Z,18.03
2017-07-12T06:56:29.280Z,19.17
2017-07-12T06:58:57.968Z,17.27
2017-07-12T07:01:27.079Z,19.57
2017-07-12T07:03:56.127Z,21.47
2017-07-12T07:06:24.419Z,20.33
2017-07-12T07:08:53.895Z,19.93
2017-07-12T07:11:22.183Z,18.57
2017-07-12T07:13:51.608Z,19.10
2017-07-12T07:16:20.711Z,19.83
2017-07-12T07:18:49.008Z,22.20
2017-07-12T07:21:18.659Z,24.07
2017-07-12T07:23:48.026Z,24.90
2017-07-12T07:26:16.339Z,26.97
2017-07-12T07:28:44.636Z,26.20
2017-07-12T07:31:12.993Z,24.10
2017-07-12T07:33:41.280Z,27.50
2017-07-12T07:36:09.569Z,27.07
2017-07-12T07:38:38.658Z,28.20
2017-07-12T07:41:06.952Z,29.30
2017-07-12T07:43:36.004Z,30.47
2017-07-12T07:46:05.479Z,25.27
2017-07-12T07:48:33.770Z,23.13
2017-07-12T07:51:03.430Z,22.20
2017-07-12T07:53:32.032Z,22.60
2017-07-12T07:56:00.314Z,21.20
2017-07-12T07:58:28.608Z,18.23
2017-07-12T08:00:57.707Z,16.03
2017-07-12T08:03:27.342Z,17.50
2017-07-12T08:05:55.899Z,14.67
2017-07-12T08:08:25.594Z,10.37
2017-07-12T08:10:54.154Z,11.33
2017-07-12T08:13:23.792Z,12.87
2017-07-12T08:15:52.419Z,12.67
2017-07-12T08:18:21.099Z,13.30
2017-07-12T08:20:50.535Z,12.07
2017-07-12T08:23:19.012Z,11.20
2017-07-12T08:25:47.713Z,11.10
2017-07-12T08:28:16.027Z,11.90
2017-07-12T08:30:45.887Z,12.70
2017-07-12T08:33:14.176Z,12.10
2017-07-12T08:35:42.461Z,10.63
2017-07-12T08:38:11.557Z,10.37
2017-07-12T08:40:40.607Z,11.33
2017-07-12T08:43:10.240Z,11.00
2017-07-12T08:45:39.964Z,13.43
2017-07-12T08:48:08.247Z,13.60
2017-07-12T08:50:36.531Z,12.40
2017-07-12T08:53:04.871Z,9.40
2017-07-12T08:55:34.317Z,12.47
2017-07-12T08:58:02.611Z,12.50
2017-07-12T09:00:30.948Z,10.40
2017-07-12T09:03:00.365Z,9.57
2017-07-12T09:05:28.644Z,9.43
2017-07-12T09:07:56.987Z,7.90
2017-07-12T09:10:25.275Z,7.73
2017-07-12T09:12:53.548Z,8.70
2017-07-12T09:15:22.559Z,9.10
2017-07-12T09:17:51.234Z,7.93
2017-07-12T09:20:19.924Z,7.17
2017-07-12T09:22:48.579Z,6.27
2017-07-12T09:35:10.463Z,7.50
2017-07-12T09:37:40.299Z,8.53
2017-07-12T09:40:08.575Z,8.00
2017-07-12T09:42:36.851Z,7.93
2017-07-12T09:45:05.232Z,10.20
2017-07-12T09:47:33.516Z,7.30
2017-07-12T09:50:02.944Z,8.60
2017-07-12T09:52:31.272Z,9.70
2017-07-12T09:54:59.550Z,9.97
2017-07-12T09:57:29.190Z,10.70
2017-07-12T09:59:57.803Z,9.80
2017-07-12T10:02:27.238Z,9.40
2017-07-12T10:04:56.283Z,9.50
2017-07-12T10:07:25.379Z,12.07
2017-07-12T10:09:53.670Z,10.37
2017-07-12T10:12:21.958Z,10.80
2017-07-12T10:14:51.655Z,12.27
2017-07-12T10:17:19.829Z,12.27
2017-07-12T10:19:48.914Z,11.97
2017-07-12T10:22:19.357Z,11.50
2017-07-12T10:24:48.068Z,11.00
2017-07-12T10:27:16.383Z,9.03
2017-07-12T10:29:44.748Z,10.90
2017-07-12T10:32:13.043Z,10.67
2017-07-12T10:34:41.327Z,11.07
2017-07-12T10:37:09.675Z,11.27
2017-07-12T10:39:37.955Z,8.43
2017-07-12T10:42:07.004Z,7.50
2017-07-12T10:44:36.103Z,7.87
2017-07-12T10:47:05.746Z,8.17
2017-07-12T10:49:35.038Z,7.60
2017-07-12T10:52:03.413Z,9.07
2017-07-12T10:54:31.691Z,7.37
2017-07-12T10:56:59.971Z,5.20
2017-07-12T10:59:28.297Z,6.80
2017-07-12T11:01:56.571Z,6.20
2017-07-12T11:04:25.988Z,7.13
2017-07-12T11:06:54.431Z,7.33
2017-07-12T11:09:22.715Z,7.13
2017-07-12T11:11:50.993Z,5.57
2017-07-12T11:14:20.865Z,5.20
2017-07-12T11:16:49.148Z,5.97
2017-07-12T11:19:18.798Z,6.50
2017-07-12T11:21:47.408Z,7.87
2017-07-12T11:24:20.372Z,7.67
2017-07-12T11:26:48.995Z,7.50
2017-07-12T11:29:18.047Z,8.00
2017-07-12T11:31:47.115Z,7.73
2017-07-12T11:34:15.452Z,6.80
2017-07-12T11:36:43.729Z,4.37
2017-07-12T11:39:12.000Z,1.37
2017-07-12T11:41:41.456Z,1.10
2017-07-12T11:44:09.728Z,1.70
2017-07-12T11:46:38.007Z,1.70
2017-07-12T11:49:07.111Z,4.20
2017-07-12T11:51:36.151Z,5.50
2017-07-12T11:54:04.439Z,5.00
2017-07-12T11:56:33.528Z,2.80
2017-07-12T11:59:02.943Z,2.00
2017-07-12T12:01:32.578Z,4.70
2017-07-12T12:04:01.551Z,2.53
2017-07-12T12:06:30.590Z,2.93
2017-07-12T12:08:58.867Z,2.30
2017-07-12T12:11:29.328Z,2.90
2017-07-12T12:13:59.108Z,4.17
2017-07-12T12:16:27.383Z,4.87
2017-07-12T12:18:57.226Z,4.40
2017-07-12T12:21:25.503Z,4.20
2017-07-12T12:23:53.790Z,3.60
2017-07-12T12:26:22.366Z,3.80
2017-07-12T12:28:51.780Z,4.03
2017-07-12T12:31:20.068Z,4.40
2017-07-12T12:33:48.402Z,3.93
2017-07-12T12:36:16.692Z,5.40
2017-07-12T12:38:44.979Z,5.13
2017-07-12T12:41:13.574Z,6.13
2017-07-12T12:43:42.243Z,5.77
2017-07-12T12:46:11.282Z,5.67
2017-07-12T12:48:40.392Z,6.50
2017-07-12T12:51:08.674Z,7.03
2017-07-12T12:53:38.308Z,6.97
2017-07-12T12:56:06.900Z,6.40
2017-07-12T12:58:35.188Z,6.50
2017-07-12T13:01:04.825Z,5.30
2017-07-12T13:03:33.443Z,6.50
2017-07-12T13:06:01.719Z,6.90
2017-07-12T13:08:29.995Z,7.67
2017-07-12T13:10:58.734Z,7.20
2017-07-12T13:13:27.787Z,7.70
2017-07-12T13:15:56.067Z,9.50
2017-07-12T13:18:24.390Z,9.17
2017-07-12T13:20:52.666Z,6.20
2017-07-12T13:23:20.958Z,6.43
2017-07-12T13:25:49.308Z,4.97
2017-07-12T13:28:19.332Z,5.93
2017-07-12T13:30:47.615Z,4.43
2017-07-12T13:33:17.095Z,6.10
2017-07-12T13:35:45.825Z,6.97
2017-07-12T13:38:14.853Z,8.17
2017-07-12T13:40:43.189Z,7.53
2017-07-12T13:43:11.463Z,6.27
2017-07-12T13:45:39.739Z,7.60
2017-07-12T13:48:08.085Z,7.70
2017-07-12T13:50:37.495Z,7.90
2017-07-12T13:53:05.779Z,7.07
2017-07-12T13:55:34.108Z,6.60
2017-07-12T13:58:03.751Z,5.80
2017-07-12T14:00:32.300Z,5.63
2017-07-12T14:03:01.991Z,3.60
2017-07-12T14:05:30.535Z,5.00
2017-07-12T14:07:59.948Z,4.97
2017-07-12T14:10:28.527Z,5.00
2017-07-12T14:12:58.311Z,4.00
2017-07-12T14:15:26.584Z,4.30
2017-07-12T14:17:54.911Z,3.90
2017-07-12T14:20:23.195Z,4.83
2017-07-12T14:22:51.467Z,4.50
2017-07-12T14:25:20.952Z,4.60
2017-07-12T14:27:49.241Z,3.50
2017-07-12T14:30:17.522Z,3.83
2017-07-12T14:32:46.844Z,3.93
2017-07-12T14:35:15.528Z,3.70
2017-07-12T14:37:43.804Z,3.00
2017-07-12T14:40:12.390Z,3.77
2017-07-12T14:42:40.664Z,4.10
2017-07-12T14:45:08.938Z,3.43
2017-07-12T14:47:38.024Z,2.50
2017-07-12T14:50:07.655Z,3.03
2017-07-12T14:52:36.204Z,2.20
2017-07-12T14:55:04.837Z,3.60
2017-07-12T14:57:34.255Z,3.70
2017-07-12T15:00:02.534Z,2.33
2017-07-12T15:02:31.142Z,2.40
2017-07-12T15:04:59.416Z,2.90
2017-07-12T15:07:28.826Z,2.90
2017-07-12T15:09:57.164Z,3.03
2017-07-12T15:12:25.436Z,3.03
2017-07-12T15:16:30.310Z,3.03
2017-07-12T15:18:59.355Z,2.90
2017-07-12T15:21:28.400Z,3.27
2017-07-12T15:23:58.235Z,3.20
2017-07-12T15:26:26.508Z,2.77
2017-07-12T15:28:55.546Z,3.00
2017-07-12T15:31:25.107Z,2.67
2017-07-12T15:33:53.779Z,3.00
2017-07-12T15:36:23.403Z,3.03
2017-07-12T15:38:52.963Z,3.53
2017-07-12T15:41:22.255Z,3.83
2017-07-12T15:43:50.535Z,4.07
2017-07-12T15:46:20.218Z,3.53
2017-07-12T15:48:49.731Z,4.10
2017-07-12T15:51:18.651Z,4.00
2017-07-12T15:53:47.024Z,3.70
2017-07-12T15:56:15.309Z,6.37
2017-07-12T15:58:43.580Z,4.97
2017-07-12T16:01:12.259Z,5.60
2017-07-12T16:03:41.670Z,5.20
2017-07-12T16:06:09.948Z,4.33
2017-07-12T16:08:38.585Z,4.83
2017-07-12T16:11:08.206Z,4.40
2017-07-12T16:13:36.753Z,5.77
2017-07-12T16:16:05.847Z,4.90
2017-07-12T16:18:34.130Z,5.20
2017-07-12T16:21:03.770Z,5.13
2017-07-12T16:23:32.396Z,5.90
2017-07-12T16:26:02.018Z,5.90
2017-07-12T16:28:30.568Z,6.17
2017-07-12T16:30:58.906Z,5.37
2017-07-12T16:33:27.187Z,5.40
2017-07-12T16:35:55.477Z,4.80
2017-07-12T16:38:24.163Z,5.57
2017-07-12T16:40:53.298Z,6.50
2017-07-12T16:43:22.864Z,5.57
2017-07-12T16:45:51.872Z,6.00
2017-07-12T16:48:20.165Z,19.63
2017-07-12T16:50:49.816Z,16.20
2017-07-12T16:53:19.393Z,6.33
2017-07-12T16:55:47.568Z,5.40
2017-07-12T16:58:15.864Z,5.07
2017-07-12T17:00:45.576Z,5.80
2017-07-12T17:03:14.145Z,5.27
2017-07-12T17:05:42.435Z,5.93
2017-07-12T17:08:12.107Z,5.60
2017-07-12T17:10:40.259Z,5.00
2017-07-12T17:13:09.887Z,5.70
2017-07-12T17:15:38.505Z,4.77
2017-07-12T17:18:08.154Z,4.83
2017-07-12T17:20:36.707Z,5.07
2017-07-12T17:23:05.422Z,4.50
2017-07-12T17:25:33.720Z,4.83
2017-07-12T17:28:03.529Z,4.10
2017-07-12T17:30:31.871Z,4.27
2017-07-12T17:33:01.503Z,4.20
2017-07-12T17:35:30.420Z,4.30
2017-07-12T17:37:59.513Z,4.40
2017-07-12T17:40:29.143Z,4.63
2017-07-12T17:42:57.692Z,4.03
2017-07-12T17:45:26.015Z,5.20
2017-07-12T17:47:54.294Z,3.77
2017-07-12T17:50:23.921Z,3.63
2017-07-12T17:52:52.904Z,3.80
2017-07-12T17:55:22.316Z,4.27
2017-07-12T17:57:50.599Z,3.90
2017-07-12T18:00:18.954Z,4.30
2017-07-12T18:02:47.260Z,2.83
2017-07-12T18:05:17.068Z,2.70
2017-07-12T18:07:47.033Z,2.77
2017-07-12T18:10:15.587Z,2.73
2017-07-12T18:12:45.254Z,3.30
2017-07-12T18:15:13.869Z,3.20
2017-07-12T18:17:42.145Z,2.50
2017-07-12T18:20:11.771Z,2.53
2017-07-12T18:22:41.314Z,2.60
2017-07-12T18:25:09.468Z,2.43
2017-07-12T18:27:37.751Z,1.80
2017-07-12T18:30:07.764Z,2.70
2017-07-12T18:32:37.267Z,2.63
2017-07-12T18:35:06.190Z,1.43
2017-07-12T18:37:34.927Z,2.07
2017-07-12T18:40:04.569Z,2.13
2017-07-12T18:42:32.742Z,2.37
2017-07-12T18:45:02.406Z,1.80
2017-07-12T18:47:30.950Z,1.97
2017-07-12T18:49:59.228Z,3.13
2017-07-12T18:52:27.556Z,2.30
2017-07-12T18:54:55.831Z,2.23
2017-07-12T18:57:24.107Z,2.40
2017-07-12T18:59:53.834Z,2.27
2017-07-12T19:02:23.332Z,2.40
2017-07-12T19:04:51.479Z,2.33
2017-07-12T19:07:21.169Z,1.93
2017-07-12T19:09:50.100Z,2.30
2017-07-12T19:12:19.892Z,2.00
2017-07-12T19:14:48.537Z,2.10
2017-07-12T19:17:17.966Z,2.20
2017-07-12T19:19:46.263Z,2.63
2017-07-12T19:22:15.946Z,2.30
2017-07-12T19:24:44.875Z,2.17
2017-07-12T19:27:13.161Z,2.40
2017-07-12T19:29:42.315Z,2.40
2017-07-12T19:32:11.368Z,2.63
2017-07-12T19:34:40.999Z,2.37
2017-07-12T19:37:09.607Z,3.10
2017-07-12T19:39:37.883Z,2.37
2017-07-12T19:42:06.168Z,3.03
2017-07-12T19:44:35.264Z,2.73
2017-07-12T19:47:03.557Z,2.70
2017-07-12T19:49:33.350Z,2.27
2017-07-12T19:52:01.679Z,3.13
2017-07-12T19:54:29.955Z,2.50
2017-07-12T19:56:58.233Z,2.03
2017-07-12T19:59:26.548Z,2.40
2017-07-12T20:01:56.332Z,2.37
2017-07-12T20:04:26.144Z,3.10
2017-07-12T20:06:54.456Z,2.63
2017-07-12T20:09:22.736Z,1.83
2017-07-12T20:11:51.040Z,2.60
2017-07-12T20:14:19.376Z,2.23
2017-07-12T20:16:47.656Z,2.97
2017-07-12T20:19:17.326Z,2.50
2017-07-12T20:21:47.672Z,2.70
2017-07-12T20:24:15.960Z,3.20
2017-07-12T20:26:44.272Z,3.47
2017-07-12T20:29:13.352Z,2.63
2017-07-12T20:31:41.631Z,2.47
2017-07-12T20:34:09.970Z,2.57
2017-07-12T20:36:38.275Z,2.93
2017-07-12T20:39:07.687Z,3.13
2017-07-12T20:41:35.991Z,2.57
2017-07-12T20:44:05.107Z,3.30
2017-07-12T20:46:34.163Z,3.00
2017-07-12T20:49:04.902Z,2.60
2017-07-12T20:51:33.227Z,2.73
2017-07-12T20:54:02.680Z,2.90
2017-07-12T20:56:31.723Z,2.83
2017-07-12T20:59:01.179Z,2.43
2017-07-12T21:01:30.809Z,3.00
2017-07-12T21:03:59.736Z,2.37
2017-07-12T21:06:28.060Z,2.80
2017-07-12T21:08:56.339Z,2.80
2017-07-12T21:11:25.012Z,2.03
2017-07-12T21:13:53.336Z,3.23
2017-07-12T21:16:21.608Z,3.10
2017-07-12T21:18:49.902Z,2.50
2017-07-12T21:21:18.265Z,3.27
2017-07-12T21:23:46.573Z,2.27
2017-07-12T21:26:14.861Z,3.30
2017-07-12T21:28:44.683Z,2.67
2017-07-12T21:31:12.962Z,2.60
2017-07-12T21:33:42.599Z,2.67
2017-07-12T21:36:10.792Z,3.00
2017-07-12T21:38:39.071Z,2.40
2017-07-12T21:41:07.355Z,2.90
2017-07-12T21:43:36.928Z,2.90
2017-07-12T21:46:05.607Z,3.93
2017-07-12T21:48:35.030Z,2.93
2017-07-12T21:51:04.396Z,3.30
2017-07-12T21:53:50.627Z,3.03
2017-07-12T21:56:42.823Z,2.80
2017-07-12T21:59:34.744Z,3.20
2017-07-12T22:02:27.102Z,3.07
2017-07-12T22:05:19.457Z,2.93
2017-07-12T22:08:11.176Z,2.40
2017-07-12T22:11:04.169Z,4.30
2017-07-12T22:13:55.932Z,3.13
2017-07-12T22:16:48.132Z,3.43
2017-07-12T22:19:41.059Z,3.47
2017-07-12T22:22:28.185Z,3.73
2017-07-12T22:25:20.968Z,3.47
2017-07-12T22:28:14.211Z,3.30
2017-07-12T22:31:06.435Z,3.80
2017-07-12T22:33:58.541Z,4.00
2017-07-12T22:36:45.974Z,2.80
2017-07-12T22:39:26.496Z,3.50
2017-07-12T22:42:00.827Z,3.33
2017-07-12T22:44:29.379Z,3.57
2017-07-12T22:46:57.655Z,4.13
2017-07-12T22:49:25.979Z,4.27
2017-07-12T22:51:54.259Z,4.07
2017-07-12T22:54:22.538Z,3.80
2017-07-12T22:56:50.886Z,3.60
2017-07-12T22:59:20.312Z,3.97
2017-07-12T23:01:48.602Z,3.43
2017-07-12T23:04:18.315Z,4.17
2017-07-12T23:06:46.503Z,3.67
2017-07-12T23:09:16.159Z,3.80
2017-07-12T23:11:45.890Z,3.80
2017-07-12T23:14:15.528Z,3.73
2017-07-12T23:16:45.044Z,3.80
2017-07-12T23:19:14.780Z,3.60
2017-07-12T23:21:43.452Z,3.87
2017-07-12T23:24:13.236Z,3.70
2017-07-12T23:26:41.561Z,4.03
2017-07-12T23:29:10.600Z,4.20
2017-07-12T23:31:39.272Z,4.03
2017-07-12T23:34:07.736Z,3.30
2017-07-12T23:36:36.779Z,3.93
2017-07-12T23:39:06.206Z,3.83
2017-07-12T23:41:34.565Z,4.17
2017-07-12T23:44:04.212Z,3.97
2017-07-12T23:46:32.766Z,3.30
2017-07-12T23:49:01.099Z,4.50
2017-07-12T23:51:30.511Z,4.10
2017-07-12T23:53:59.551Z,4.00
2017-07-12T23:56:28.635Z,4.20
2017-07-12T23:58:58.270Z,4.33
